sensor_id;sensor_type;location;lat;lon;timestamp;P1;durP1;ratioP1;P2;durP2;ratioP2
60478;SDS011;46321;48.398;11.754;2023-01-29T00:01:55;12.52;;;6.70;;
60478;SDS011;46321;48.398;11.754;2023-01-29T00:04:21;17.45;;;7.45;;
60478;SDS011;46321;48.398;11.754;2023-01-29T00:06:47;16.10;;;6.68;;
60478;SDS011;46321;48.398;11.754;2023-01-29T00:09:12;14.40;;;6.85;;
60478;SDS011;46321;48.398;11.754;2023-01-29T00:11:38;15.10;;;7.10;;
60478;SDS011;46321;48.398;11.754;2023-01-29T00:14:04;14.00;;;7.00;;
60478;SDS011;46321;48.398;11.754;2023-01-29T00:16:29;16.42;;;7.55;;
60478;SDS011;46321;48.398;11.754;2023-01-29T00:18:55;14.43;;;6.85;;
60478;SDS011;46321;48.398;11.754;2023-01-29T00:21:20;18.00;;;7.78;;
60478;SDS011;46321;48.398;11.754;2023-01-29T00:23:47;14.02;;;7.10;;
60478;SDS011;46321;48.398;11.754;2023-01-29T00:26:13;15.82;;;7.03;;
60478;SDS011;46321;48.398;11.754;2023-01-29T00:28:39;13.60;;;7.07;;
60478;SDS011;46321;48.398;11.754;2023-01-29T00:31:08;13.60;;;7.00;;
60478;SDS011;46321;48.398;11.754;2023-01-29T00:33:38;15.38;;;7.25;;
60478;SDS011;46321;48.398;11.754;2023-01-29T00:36:04;15.70;;;6.95;;
60478;SDS011;46321;48.398;11.754;2023-01-29T00:38:31;16.77;;;7.80;;
60478;SDS011;46321;48.398;11.754;2023-01-29T00:40:57;15.23;;;7.30;;
60478;SDS011;46321;48.398;11.754;2023-01-29T00:43:56;17.85;;;7.65;;
60478;SDS011;46321;48.398;11.754;2023-01-29T00:46:41;13.40;;;6.57;;
60478;SDS011;46321;48.398;11.754;2023-01-29T00:49:07;15.18;;;7.40;;
60478;SDS011;46321;48.398;11.754;2023-01-29T00:51:33;14.05;;;7.13;;
60478;SDS011;46321;48.398;11.754;2023-01-29T00:53:59;14.00;;;6.60;;
60478;SDS011;46321;48.398;11.754;2023-01-29T00:56:25;15.77;;;6.85;;
60478;SDS011;46321;48.398;11.754;2023-01-29T00:58:51;15.48;;;7.22;;
60478;SDS011;46321;48.398;11.754;2023-01-29T01:01:17;15.25;;;7.40;;
60478;SDS011;46321;48.398;11.754;2023-01-29T01:04:02;13.40;;;7.00;;
60478;SDS011;46321;48.398;11.754;2023-01-29T01:06:28;14.57;;;6.90;;
60478;SDS011;46321;48.398;11.754;2023-01-29T01:08:53;14.85;;;6.28;;
60478;SDS011;46321;48.398;11.754;2023-01-29T01:11:36;13.73;;;6.35;;
60478;SDS011;46321;48.398;11.754;2023-01-29T01:14:02;13.30;;;6.00;;
60478;SDS011;46321;48.398;11.754;2023-01-29T01:16:27;13.30;;;6.43;;
60478;SDS011;46321;48.398;11.754;2023-01-29T01:18:52;14.43;;;6.72;;
60478;SDS011;46321;48.398;11.754;2023-01-29T01:21:17;10.93;;;6.25;;
60478;SDS011;46321;48.398;11.754;2023-01-29T01:23:43;12.45;;;6.35;;
60478;SDS011;46321;48.398;11.754;2023-01-29T01:26:08;13.27;;;6.75;;
60478;SDS011;46321;48.398;11.754;2023-01-29T01:28:34;15.57;;;6.80;;
60478;SDS011;46321;48.398;11.754;2023-01-29T01:31:06;15.07;;;6.85;;
60478;SDS011;46321;48.398;11.754;2023-01-29T01:33:36;12.25;;;6.30;;
60478;SDS011;46321;48.398;11.754;2023-01-29T01:36:02;13.55;;;6.72;;
60478;SDS011;46321;48.398;11.754;2023-01-29T01:38:27;13.40;;;6.53;;
60478;SDS011;46321;48.398;11.754;2023-01-29T01:40:53;12.43;;;6.60;;
60478;SDS011;46321;48.398;11.754;2023-01-29T01:43:18;12.50;;;6.50;;
60478;SDS011;46321;48.398;11.754;2023-01-29T01:45:43;15.13;;;6.65;;
60478;SDS011;46321;48.398;11.754;2023-01-29T01:50:44;12.90;;;6.60;;
60478;SDS011;46321;48.398;11.754;2023-01-29T01:53:15;12.93;;;6.50;;
60478;SDS011;46321;48.398;11.754;2023-01-29T01:55:47;12.13;;;6.45;;
60478;SDS011;46321;48.398;11.754;2023-01-29T02:00:54;13.50;;;6.53;;
60478;SDS011;46321;48.398;11.754;2023-01-29T02:03:20;12.32;;;6.15;;
60478;SDS011;46321;48.398;11.754;2023-01-29T02:06:06;13.00;;;6.18;;
60478;SDS011;46321;48.398;11.754;2023-01-29T02:09:05;12.98;;;5.90;;
60478;SDS011;46321;48.398;11.754;2023-01-29T02:11:53;13.13;;;6.15;;
60478;SDS011;46321;48.398;11.754;2023-01-29T02:14:19;10.90;;;5.00;;
60478;SDS011;46321;48.398;11.754;2023-01-29T02:16:44;9.23;;;4.80;;
60478;SDS011;46321;48.398;11.754;2023-01-29T02:19:15;6.90;;;3.85;;
60478;SDS011;46321;48.398;11.754;2023-01-29T02:22:05;9.77;;;4.68;;
60478;SDS011;46321;48.398;11.754;2023-01-29T02:24:44;6.93;;;3.87;;
60478;SDS011;46321;48.398;11.754;2023-01-29T02:27:14;6.05;;;4.10;;
60478;SDS011;46321;48.398;11.754;2023-01-29T02:29:55;6.68;;;3.83;;
60478;SDS011;46321;48.398;11.754;2023-01-29T02:32:26;6.88;;;3.70;;
60478;SDS011;46321;48.398;11.754;2023-01-29T02:35:31;8.18;;;4.72;;
60478;SDS011;46321;48.398;11.754;2023-01-29T02:40:42;8.75;;;4.35;;
60478;SDS011;46321;48.398;11.754;2023-01-29T02:43:14;7.30;;;4.15;;
60478;SDS011;46321;48.398;11.754;2023-01-29T02:48:29;9.85;;;5.20;;
60478;SDS011;46321;48.398;11.754;2023-01-29T02:51:09;10.98;;;5.65;;
60478;SDS011;46321;48.398;11.754;2023-01-29T02:53:58;12.93;;;5.97;;
60478;SDS011;46321;48.398;11.754;2023-01-29T02:56:53;13.48;;;6.35;;
60478;SDS011;46321;48.398;11.754;2023-01-29T03:00:12;12.82;;;6.57;;
60478;SDS011;46321;48.398;11.754;2023-01-29T03:02:31;13.13;;;6.57;;
60478;SDS011;46321;48.398;11.754;2023-01-29T03:05:03;12.93;;;6.50;;
60478;SDS011;46321;48.398;11.754;2023-01-29T03:07:36;13.32;;;6.55;;
60478;SDS011;46321;48.398;11.754;2023-01-29T03:10:22;13.00;;;6.63;;
60478;SDS011;46321;48.398;11.754;2023-01-29T03:12:57;13.68;;;6.40;;
60478;SDS011;46321;48.398;11.754;2023-01-29T03:15:28;15.48;;;7.10;;
60478;SDS011;46321;48.398;11.754;2023-01-29T03:18:05;13.48;;;6.57;;
60478;SDS011;46321;48.398;11.754;2023-01-29T03:20:34;12.13;;;6.30;;
60478;SDS011;46321;48.398;11.754;2023-01-29T03:23:09;13.60;;;6.32;;
60478;SDS011;46321;48.398;11.754;2023-01-29T03:25:38;14.73;;;6.65;;
60478;SDS011;46321;48.398;11.754;2023-01-29T03:28:25;13.98;;;6.22;;
60478;SDS011;46321;48.398;11.754;2023-01-29T03:31:11;11.18;;;6.55;;
60478;SDS011;46321;48.398;11.754;2023-01-29T03:33:58;13.52;;;6.28;;
60478;SDS011;46321;48.398;11.754;2023-01-29T03:36:30;14.40;;;6.47;;
60478;SDS011;46321;48.398;11.754;2023-01-29T03:39:04;15.70;;;7.10;;
60478;SDS011;46321;48.398;11.754;2023-01-29T03:41:32;12.35;;;6.15;;
60478;SDS011;46321;48.398;11.754;2023-01-29T03:44:15;13.30;;;7.18;;
60478;SDS011;46321;48.398;11.754;2023-01-29T03:49:30;11.25;;;5.97;;
60478;SDS011;46321;48.398;11.754;2023-01-29T03:54:55;8.73;;;4.65;;
60478;SDS011;46321;48.398;11.754;2023-01-29T04:00:06;9.50;;;5.30;;
60478;SDS011;46321;48.398;11.754;2023-01-29T04:02:41;10.10;;;5.10;;
60478;SDS011;46321;48.398;11.754;2023-01-29T04:05:19;10.35;;;5.53;;
60478;SDS011;46321;48.398;11.754;2023-01-29T04:07:47;8.52;;;4.47;;
60478;SDS011;46321;48.398;11.754;2023-01-29T04:10:20;10.57;;;5.70;;
60478;SDS011;46321;48.398;11.754;2023-01-29T04:12:51;12.77;;;5.90;;
60478;SDS011;46321;48.398;11.754;2023-01-29T04:15:20;10.85;;;5.70;;
60478;SDS011;46321;48.398;11.754;2023-01-29T04:17:49;12.77;;;6.68;;
60478;SDS011;46321;48.398;11.754;2023-01-29T04:20:16;15.35;;;7.00;;
60478;SDS011;46321;48.398;11.754;2023-01-29T04:22:44;15.55;;;7.55;;
60478;SDS011;46321;48.398;11.754;2023-01-29T04:25:12;12.90;;;6.28;;
60478;SDS011;46321;48.398;11.754;2023-01-29T04:28:00;13.90;;;6.25;;
60478;SDS011;46321;48.398;11.754;2023-01-29T04:38:46;9.20;;;4.55;;
60478;SDS011;46321;48.398;11.754;2023-01-29T04:41:19;6.43;;;3.65;;
60478;SDS011;46321;48.398;11.754;2023-01-29T04:43:53;8.02;;;4.40;;
60478;SDS011;46321;48.398;11.754;2023-01-29T04:46:26;10.45;;;5.53;;
60478;SDS011;46321;48.398;11.754;2023-01-29T04:49:05;10.63;;;5.07;;
60478;SDS011;46321;48.398;11.754;2023-01-29T04:51:36;8.70;;;4.93;;
60478;SDS011;46321;48.398;11.754;2023-01-29T04:54:17;8.77;;;4.80;;
60478;SDS011;46321;48.398;11.754;2023-01-29T04:57:13;12.38;;;5.88;;
60478;SDS011;46321;48.398;11.754;2023-01-29T04:59:46;11.75;;;5.75;;
60478;SDS011;46321;48.398;11.754;2023-01-29T05:02:16;10.70;;;5.07;;
60478;SDS011;46321;48.398;11.754;2023-01-29T05:04:44;12.68;;;6.00;;
60478;SDS011;46321;48.398;11.754;2023-01-29T05:07:12;10.02;;;5.70;;
60478;SDS011;46321;48.398;11.754;2023-01-29T05:09:38;10.23;;;5.05;;
60478;SDS011;46321;48.398;11.754;2023-01-29T05:12:08;9.88;;;4.97;;
60478;SDS011;46321;48.398;11.754;2023-01-29T05:14:36;10.00;;;5.28;;
60478;SDS011;46321;48.398;11.754;2023-01-29T05:17:08;9.75;;;5.10;;
60478;SDS011;46321;48.398;11.754;2023-01-29T05:19:40;9.45;;;5.05;;
60478;SDS011;46321;48.398;11.754;2023-01-29T05:22:05;11.85;;;5.85;;
60478;SDS011;46321;48.398;11.754;2023-01-29T05:24:34;10.18;;;4.93;;
60478;SDS011;46321;48.398;11.754;2023-01-29T05:27:00;8.07;;;4.43;;
60478;SDS011;46321;48.398;11.754;2023-01-29T05:32:10;10.27;;;4.97;;
60478;SDS011;46321;48.398;11.754;2023-01-29T05:34:36;11.93;;;5.10;;
60478;SDS011;46321;48.398;11.754;2023-01-29T05:37:01;8.95;;;4.80;;
60478;SDS011;46321;48.398;11.754;2023-01-29T05:39:27;9.15;;;4.90;;
60478;SDS011;46321;48.398;11.754;2023-01-29T05:41:52;10.63;;;4.85;;
60478;SDS011;46321;48.398;11.754;2023-01-29T05:44:17;9.38;;;5.00;;
60478;SDS011;46321;48.398;11.754;2023-01-29T05:46:43;7.28;;;4.57;;
60478;SDS011;46321;48.398;11.754;2023-01-29T05:49:08;9.27;;;4.53;;
60478;SDS011;46321;48.398;11.754;2023-01-29T05:51:34;9.05;;;5.00;;
60478;SDS011;46321;48.398;11.754;2023-01-29T05:53:59;8.18;;;4.47;;
60478;SDS011;46321;48.398;11.754;2023-01-29T05:56:25;9.52;;;4.63;;
60478;SDS011;46321;48.398;11.754;2023-01-29T05:58:50;8.98;;;4.75;;
60478;SDS011;46321;48.398;11.754;2023-01-29T06:01:17;9.13;;;4.88;;
60478;SDS011;46321;48.398;11.754;2023-01-29T06:03:44;8.13;;;4.45;;
60478;SDS011;46321;48.398;11.754;2023-01-29T06:06:09;7.55;;;4.30;;
60478;SDS011;46321;48.398;11.754;2023-01-29T06:08:35;6.38;;;3.58;;
60478;SDS011;46321;48.398;11.754;2023-01-29T06:11:01;8.07;;;3.92;;
60478;SDS011;46321;48.398;11.754;2023-01-29T06:13:26;6.25;;;3.53;;
60478;SDS011;46321;48.398;11.754;2023-01-29T06:15:52;8.48;;;4.03;;
60478;SDS011;46321;48.398;11.754;2023-01-29T06:18:17;7.47;;;3.67;;
60478;SDS011;46321;48.398;11.754;2023-01-29T06:20:42;6.30;;;3.60;;
60478;SDS011;46321;48.398;11.754;2023-01-29T06:23:07;7.07;;;3.88;;
60478;SDS011;46321;48.398;11.754;2023-01-29T06:25:33;7.72;;;3.83;;
60478;SDS011;46321;48.398;11.754;2023-01-29T06:27:58;7.75;;;4.57;;
60478;SDS011;46321;48.398;11.754;2023-01-29T06:30:23;7.93;;;4.50;;
60478;SDS011;46321;48.398;11.754;2023-01-29T06:32:49;7.55;;;4.47;;
60478;SDS011;46321;48.398;11.754;2023-01-29T06:35:14;8.70;;;4.50;;
60478;SDS011;46321;48.398;11.754;2023-01-29T06:37:39;9.00;;;5.03;;
60478;SDS011;46321;48.398;11.754;2023-01-29T06:40:05;8.02;;;4.75;;
60478;SDS011;46321;48.398;11.754;2023-01-29T06:42:31;9.07;;;5.25;;
60478;SDS011;46321;48.398;11.754;2023-01-29T06:44:59;11.00;;;5.22;;
60478;SDS011;46321;48.398;11.754;2023-01-29T06:47:25;9.60;;;5.68;;
60478;SDS011;46321;48.398;11.754;2023-01-29T06:49:51;10.45;;;5.65;;
60478;SDS011;46321;48.398;11.754;2023-01-29T06:52:16;11.60;;;5.25;;
60478;SDS011;46321;48.398;11.754;2023-01-29T06:54:41;11.35;;;5.68;;
60478;SDS011;46321;48.398;11.754;2023-01-29T06:57:07;10.93;;;5.45;;
60478;SDS011;46321;48.398;11.754;2023-01-29T06:59:32;8.25;;;4.35;;
60478;SDS011;46321;48.398;11.754;2023-01-29T07:01:57;9.73;;;4.82;;
60478;SDS011;46321;48.398;11.754;2023-01-29T07:04:23;11.50;;;6.03;;
60478;SDS011;46321;48.398;11.754;2023-01-29T07:06:48;11.05;;;5.00;;
60478;SDS011;46321;48.398;11.754;2023-01-29T07:09:13;10.10;;;4.90;;
60478;SDS011;46321;48.398;11.754;2023-01-29T07:11:39;8.82;;;4.80;;
60478;SDS011;46321;48.398;11.754;2023-01-29T07:14:04;8.55;;;4.90;;
60478;SDS011;46321;48.398;11.754;2023-01-29T07:16:31;8.57;;;4.93;;
60478;SDS011;46321;48.398;11.754;2023-01-29T07:18:56;9.38;;;4.80;;
60478;SDS011;46321;48.398;11.754;2023-01-29T07:21:21;10.27;;;5.70;;
60478;SDS011;46321;48.398;11.754;2023-01-29T07:23:47;10.23;;;5.13;;
60478;SDS011;46321;48.398;11.754;2023-01-29T07:26:12;12.65;;;6.13;;
60478;SDS011;46321;48.398;11.754;2023-01-29T07:28:38;10.70;;;5.40;;
60478;SDS011;46321;48.398;11.754;2023-01-29T07:31:04;11.02;;;6.00;;
60478;SDS011;46321;48.398;11.754;2023-01-29T07:33:31;10.65;;;5.82;;
60478;SDS011;46321;48.398;11.754;2023-01-29T07:35:56;10.80;;;6.03;;
60478;SDS011;46321;48.398;11.754;2023-01-29T07:38:21;10.80;;;5.78;;
60478;SDS011;46321;48.398;11.754;2023-01-29T07:40:47;10.63;;;5.80;;
60478;SDS011;46321;48.398;11.754;2023-01-29T07:43:12;12.15;;;6.30;;
60478;SDS011;46321;48.398;11.754;2023-01-29T07:45:38;11.82;;;6.03;;
60478;SDS011;46321;48.398;11.754;2023-01-29T07:48:05;13.80;;;6.72;;
60478;SDS011;46321;48.398;11.754;2023-01-29T07:50:33;13.40;;;6.70;;
60478;SDS011;46321;48.398;11.754;2023-01-29T07:52:59;19.85;;;9.68;;
60478;SDS011;46321;48.398;11.754;2023-01-29T07:55:25;22.70;;;10.55;;
60478;SDS011;46321;48.398;11.754;2023-01-29T07:57:54;14.18;;;7.10;;
60478;SDS011;46321;48.398;11.754;2023-01-29T08:00:23;15.23;;;7.00;;
60478;SDS011;46321;48.398;11.754;2023-01-29T08:02:49;13.32;;;6.68;;
60478;SDS011;46321;48.398;11.754;2023-01-29T08:05:14;12.48;;;6.43;;
60478;SDS011;46321;48.398;11.754;2023-01-29T08:07:40;12.07;;;6.13;;
60478;SDS011;46321;48.398;11.754;2023-01-29T08:10:05;12.82;;;6.43;;
60478;SDS011;46321;48.398;11.754;2023-01-29T08:12:31;13.23;;;6.43;;
60478;SDS011;46321;48.398;11.754;2023-01-29T08:14:56;12.45;;;6.15;;
60478;SDS011;46321;48.398;11.754;2023-01-29T08:17:21;11.52;;;5.68;;
60478;SDS011;46321;48.398;11.754;2023-01-29T08:19:47;11.93;;;6.57;;
60478;SDS011;46321;48.398;11.754;2023-01-29T08:22:12;13.30;;;6.57;;
60478;SDS011;46321;48.398;11.754;2023-01-29T08:24:39;13.43;;;6.65;;
60478;SDS011;46321;48.398;11.754;2023-01-29T08:27:04;11.15;;;5.88;;
60478;SDS011;46321;48.398;11.754;2023-01-29T08:29:29;11.48;;;5.90;;
60478;SDS011;46321;48.398;11.754;2023-01-29T08:31:55;11.38;;;5.60;;
60478;SDS011;46321;48.398;11.754;2023-01-29T08:34:20;12.77;;;6.55;;
60478;SDS011;46321;48.398;11.754;2023-01-29T08:36:45;13.32;;;6.10;;
60478;SDS011;46321;48.398;11.754;2023-01-29T08:39:11;11.48;;;6.30;;
60478;SDS011;46321;48.398;11.754;2023-01-29T08:41:36;11.45;;;5.93;;
60478;SDS011;46321;48.398;11.754;2023-01-29T08:44:02;10.60;;;5.80;;
60478;SDS011;46321;48.398;11.754;2023-01-29T08:46:28;11.40;;;5.95;;
60478;SDS011;46321;48.398;11.754;2023-01-29T08:48:54;59.38;;;25.65;;
60478;SDS011;46321;48.398;11.754;2023-01-29T08:51:20;51.13;;;21.60;;
60478;SDS011;46321;48.398;11.754;2023-01-29T08:53:45;19.10;;;9.07;;
60478;SDS011;46321;48.398;11.754;2023-01-29T08:56:11;12.07;;;6.63;;
60478;SDS011;46321;48.398;11.754;2023-01-29T08:58:36;10.73;;;5.70;;
60478;SDS011;46321;48.398;11.754;2023-01-29T09:01:05;12.40;;;5.60;;
60478;SDS011;46321;48.398;11.754;2023-01-29T09:03:32;11.13;;;5.80;;
60478;SDS011;46321;48.398;11.754;2023-01-29T09:05:57;12.00;;;6.25;;
60478;SDS011;46321;48.398;11.754;2023-01-29T09:08:22;12.43;;;6.40;;
60478;SDS011;46321;48.398;11.754;2023-01-29T09:10:47;14.07;;;6.57;;
60478;SDS011;46321;48.398;11.754;2023-01-29T09:13:13;12.52;;;6.65;;
60478;SDS011;46321;48.398;11.754;2023-01-29T09:15:38;16.10;;;7.75;;
60478;SDS011;46321;48.398;11.754;2023-01-29T09:18:03;12.93;;;6.75;;
60478;SDS011;46321;48.398;11.754;2023-01-29T09:20:29;18.40;;;9.20;;
60478;SDS011;46321;48.398;11.754;2023-01-29T09:22:56;17.25;;;9.00;;
60478;SDS011;46321;48.398;11.754;2023-01-29T09:25:23;14.55;;;7.53;;
60478;SDS011;46321;48.398;11.754;2023-01-29T09:27:48;16.73;;;7.95;;
60478;SDS011;46321;48.398;11.754;2023-01-29T09:30:13;13.00;;;6.45;;
60478;SDS011;46321;48.398;11.754;2023-01-29T09:32:39;13.25;;;6.82;;
60478;SDS011;46321;48.398;11.754;2023-01-29T09:35:04;15.93;;;8.27;;
60478;SDS011;46321;48.398;11.754;2023-01-29T09:37:30;18.50;;;9.77;;
60478;SDS011;46321;48.398;11.754;2023-01-29T09:39:55;18.70;;;9.32;;
60478;SDS011;46321;48.398;11.754;2023-01-29T09:42:23;14.25;;;7.25;;
60478;SDS011;46321;48.398;11.754;2023-01-29T09:44:55;13.55;;;7.28;;
60478;SDS011;46321;48.398;11.754;2023-01-29T09:47:26;13.40;;;7.82;;
60478;SDS011;46321;48.398;11.754;2023-01-29T09:49:57;15.55;;;7.82;;
60478;SDS011;46321;48.398;11.754;2023-01-29T09:52:27;11.98;;;6.90;;
60478;SDS011;46321;48.398;11.754;2023-01-29T09:55:06;15.02;;;7.43;;
60478;SDS011;46321;48.398;11.754;2023-01-29T09:57:46;12.90;;;6.57;;
60478;SDS011;46321;48.398;11.754;2023-01-29T10:00:14;15.60;;;6.70;;
60478;SDS011;46321;48.398;11.754;2023-01-29T10:05:24;11.52;;;6.03;;
60478;SDS011;46321;48.398;11.754;2023-01-29T10:10:48;16.40;;;7.43;;
60478;SDS011;46321;48.398;11.754;2023-01-29T10:18:33;7.53;;;4.45;;
60478;SDS011;46321;48.398;11.754;2023-01-29T10:21:07;9.63;;;5.07;;
60478;SDS011;46321;48.398;11.754;2023-01-29T10:24:37;10.05;;;4.60;;
60478;SDS011;46321;48.398;11.754;2023-01-29T10:26:50;11.65;;;5.95;;
60478;SDS011;46321;48.398;11.754;2023-01-29T10:29:17;15.23;;;7.88;;
60478;SDS011;46321;48.398;11.754;2023-01-29T10:31:46;12.65;;;7.03;;
60478;SDS011;46321;48.398;11.754;2023-01-29T10:34:24;13.13;;;7.10;;
60478;SDS011;46321;48.398;11.754;2023-01-29T10:36:56;13.38;;;7.53;;
60478;SDS011;46321;48.398;11.754;2023-01-29T10:39:24;12.40;;;6.65;;
60478;SDS011;46321;48.398;11.754;2023-01-29T10:41:59;13.13;;;6.25;;
60478;SDS011;46321;48.398;11.754;2023-01-29T10:53:05;11.33;;;5.87;;
60478;SDS011;46321;48.398;11.754;2023-01-29T10:58:25;12.15;;;6.63;;
60478;SDS011;46321;48.398;11.754;2023-01-29T11:00:55;10.57;;;6.20;;
60478;SDS011;46321;48.398;11.754;2023-01-29T11:03:22;12.18;;;6.85;;
60478;SDS011;46321;48.398;11.754;2023-01-29T11:11:21;9.70;;;5.13;;
60478;SDS011;46321;48.398;11.754;2023-01-29T11:14:07;10.10;;;5.63;;
60478;SDS011;46321;48.398;11.754;2023-01-29T11:16:43;11.20;;;6.18;;
60478;SDS011;46321;48.398;11.754;2023-01-29T11:19:11;12.40;;;6.50;;
60478;SDS011;46321;48.398;11.754;2023-01-29T11:21:50;12.80;;;6.32;;
60478;SDS011;46321;48.398;11.754;2023-01-29T11:24:16;11.63;;;5.85;;
60478;SDS011;46321;48.398;11.754;2023-01-29T11:26:41;14.20;;;6.70;;
60478;SDS011;46321;48.398;11.754;2023-01-29T11:29:53;13.25;;;7.10;;
60478;SDS011;46321;48.398;11.754;2023-01-29T11:32:03;11.52;;;6.35;;
60478;SDS011;46321;48.398;11.754;2023-01-29T11:34:31;9.73;;;5.95;;
60478;SDS011;46321;48.398;11.754;2023-01-29T11:36:57;11.50;;;6.20;;
60478;SDS011;46321;48.398;11.754;2023-01-29T11:39:27;11.52;;;6.40;;
60478;SDS011;46321;48.398;11.754;2023-01-29T11:42:01;12.50;;;5.85;;
60478;SDS011;46321;48.398;11.754;2023-01-29T11:49:48;10.75;;;5.50;;
60478;SDS011;46321;48.398;11.754;2023-01-29T11:52:19;10.55;;;5.53;;
60478;SDS011;46321;48.398;11.754;2023-01-29T11:54:49;12.13;;;6.68;;
60478;SDS011;46321;48.398;11.754;2023-01-29T11:59:53;14.63;;;7.55;;
60478;SDS011;46321;48.398;11.754;2023-01-29T12:04:50;12.82;;;6.25;;
60478;SDS011;46321;48.398;11.754;2023-01-29T12:07:18;11.85;;;6.45;;
60478;SDS011;46321;48.398;11.754;2023-01-29T12:09:54;13.07;;;6.80;;
60478;SDS011;46321;48.398;11.754;2023-01-29T12:12:32;11.98;;;5.97;;
60478;SDS011;46321;48.398;11.754;2023-01-29T12:15:09;10.60;;;5.53;;
60478;SDS011;46321;48.398;11.754;2023-01-29T12:17:40;13.15;;;6.40;;
60478;SDS011;46321;48.398;11.754;2023-01-29T12:20:11;12.02;;;6.45;;
60478;SDS011;46321;48.398;11.754;2023-01-29T12:22:44;15.63;;;7.03;;
60478;SDS011;46321;48.398;11.754;2023-01-29T12:30:53;13.25;;;6.88;;
60478;SDS011;46321;48.398;11.754;2023-01-29T12:36:30;12.57;;;6.10;;
60478;SDS011;46321;48.398;11.754;2023-01-29T12:38:58;12.38;;;6.35;;
60478;SDS011;46321;48.398;11.754;2023-01-29T12:41:29;13.05;;;6.53;;
60478;SDS011;46321;48.398;11.754;2023-01-29T12:44:01;14.35;;;6.90;;
60478;SDS011;46321;48.398;11.754;2023-01-29T12:46:36;14.35;;;7.85;;
60478;SDS011;46321;48.398;11.754;2023-01-29T12:49:09;14.35;;;7.25;;
60478;SDS011;46321;48.398;11.754;2023-01-29T12:51:41;12.38;;;7.03;;
60478;SDS011;46321;48.398;11.754;2023-01-29T12:54:15;14.80;;;6.90;;
60478;SDS011;46321;48.398;11.754;2023-01-29T12:56:47;11.63;;;6.25;;
60478;SDS011;46321;48.398;11.754;2023-01-29T12:59:19;14.00;;;7.20;;
60478;SDS011;46321;48.398;11.754;2023-01-29T13:01:53;12.98;;;6.38;;
60478;SDS011;46321;48.398;11.754;2023-01-29T13:04:35;16.23;;;7.30;;
60478;SDS011;46321;48.398;11.754;2023-01-29T13:07:11;14.55;;;6.90;;
60478;SDS011;46321;48.398;11.754;2023-01-29T13:09:41;14.02;;;7.15;;
60478;SDS011;46321;48.398;11.754;2023-01-29T13:12:11;13.70;;;6.90;;
60478;SDS011;46321;48.398;11.754;2023-01-29T13:14:44;12.73;;;6.55;;
60478;SDS011;46321;48.398;11.754;2023-01-29T13:19:45;19.05;;;9.02;;
60478;SDS011;46321;48.398;11.754;2023-01-29T13:22:19;14.45;;;7.32;;
60478;SDS011;46321;48.398;11.754;2023-01-29T13:24:48;16.02;;;6.78;;
60478;SDS011;46321;48.398;11.754;2023-01-29T13:27:18;10.90;;;6.20;;
60478;SDS011;46321;48.398;11.754;2023-01-29T13:29:47;14.25;;;7.28;;
60478;SDS011;46321;48.398;11.754;2023-01-29T13:32:18;15.88;;;6.47;;
60478;SDS011;46321;48.398;11.754;2023-01-29T13:34:46;12.77;;;6.38;;
60478;SDS011;46321;48.398;11.754;2023-01-29T13:37:17;12.38;;;6.50;;
60478;SDS011;46321;48.398;11.754;2023-01-29T13:39:52;13.77;;;6.78;;
60478;SDS011;46321;48.398;11.754;2023-01-29T13:42:30;12.73;;;6.28;;
60478;SDS011;46321;48.398;11.754;2023-01-29T13:45:04;12.85;;;6.20;;
60478;SDS011;46321;48.398;11.754;2023-01-29T13:47:32;12.68;;;6.32;;
60478;SDS011;46321;48.398;11.754;2023-01-29T13:50:02;15.13;;;7.30;;
60478;SDS011;46321;48.398;11.754;2023-01-29T13:52:37;14.45;;;6.93;;
60478;SDS011;46321;48.398;11.754;2023-01-29T14:07:54;15.45;;;6.65;;
60478;SDS011;46321;48.398;11.754;2023-01-29T14:10:23;14.80;;;7.30;;
60478;SDS011;46321;48.398;11.754;2023-01-29T14:12:50;13.88;;;7.20;;
60478;SDS011;46321;48.398;11.754;2023-01-29T14:15:38;18.83;;;7.20;;
60478;SDS011;46321;48.398;11.754;2023-01-29T14:20:39;14.02;;;6.43;;
60478;SDS011;46321;48.398;11.754;2023-01-29T14:23:25;13.23;;;6.57;;
60478;SDS011;46321;48.398;11.754;2023-01-29T14:25:54;12.60;;;6.53;;
60478;SDS011;46321;48.398;11.754;2023-01-29T14:28:27;14.35;;;6.65;;
60478;SDS011;46321;48.398;11.754;2023-01-29T14:30:54;13.45;;;7.07;;
60478;SDS011;46321;48.398;11.754;2023-01-29T14:35:57;13.52;;;6.85;;
60478;SDS011;46321;48.398;11.754;2023-01-29T14:38:24;14.50;;;7.20;;
60478;SDS011;46321;48.398;11.754;2023-01-29T14:41:01;11.77;;;6.32;;
60478;SDS011;46321;48.398;11.754;2023-01-29T14:43:29;14.85;;;6.63;;
60478;SDS011;46321;48.398;11.754;2023-01-29T14:45:54;16.23;;;7.53;;
60478;SDS011;46321;48.398;11.754;2023-01-29T14:48:58;16.67;;;7.97;;
60478;SDS011;46321;48.398;11.754;2023-01-29T14:51:23;29.92;;;14.48;;
60478;SDS011;46321;48.398;11.754;2023-01-29T14:56:35;15.95;;;6.93;;
60478;SDS011;46321;48.398;11.754;2023-01-29T15:02:03;12.25;;;6.07;;
60478;SDS011;46321;48.398;11.754;2023-01-29T15:04:44;15.15;;;6.88;;
60478;SDS011;46321;48.398;11.754;2023-01-29T15:20:31;14.73;;;7.18;;
60478;SDS011;46321;48.398;11.754;2023-01-29T15:23:01;14.93;;;6.72;;
60478;SDS011;46321;48.398;11.754;2023-01-29T15:25:34;14.07;;;7.03;;
60478;SDS011;46321;48.398;11.754;2023-01-29T15:28:02;15.60;;;7.80;;
60478;SDS011;46321;48.398;11.754;2023-01-29T15:30:32;13.70;;;7.53;;
60478;SDS011;46321;48.398;11.754;2023-01-29T15:32:59;16.38;;;8.63;;
60478;SDS011;46321;48.398;11.754;2023-01-29T15:35:37;16.77;;;7.97;;
60478;SDS011;46321;48.398;11.754;2023-01-29T15:38:20;15.43;;;8.30;;
60478;SDS011;46321;48.398;11.754;2023-01-29T15:40:53;18.67;;;10.07;;
60478;SDS011;46321;48.398;11.754;2023-01-29T15:43:24;19.58;;;9.80;;
60478;SDS011;46321;48.398;11.754;2023-01-29T15:45:54;16.70;;;8.63;;
60478;SDS011;46321;48.398;11.754;2023-01-29T15:48:30;15.77;;;8.60;;
60478;SDS011;46321;48.398;11.754;2023-01-29T15:50:59;18.23;;;8.20;;
60478;SDS011;46321;48.398;11.754;2023-01-29T15:53:30;16.35;;;8.63;;
60478;SDS011;46321;48.398;11.754;2023-01-29T15:56:00;13.50;;;7.60;;
60478;SDS011;46321;48.398;11.754;2023-01-29T15:58:27;16.85;;;9.45;;
60478;SDS011;46321;48.398;11.754;2023-01-29T16:00:55;15.88;;;8.45;;
60478;SDS011;46321;48.398;11.754;2023-01-29T16:03:23;16.73;;;8.90;;
60478;SDS011;46321;48.398;11.754;2023-01-29T16:05:50;20.70;;;10.27;;
60478;SDS011;46321;48.398;11.754;2023-01-29T16:08:17;21.55;;;10.30;;
60478;SDS011;46321;48.398;11.754;2023-01-29T16:10:44;17.08;;;8.55;;
60478;SDS011;46321;48.398;11.754;2023-01-29T16:13:15;16.55;;;8.45;;
60478;SDS011;46321;48.398;11.754;2023-01-29T16:15:53;20.58;;;9.93;;
60478;SDS011;46321;48.398;11.754;2023-01-29T16:18:22;18.70;;;8.10;;
60478;SDS011;46321;48.398;11.754;2023-01-29T16:20:49;20.58;;;8.55;;
60478;SDS011;46321;48.398;11.754;2023-01-29T16:23:18;18.25;;;8.90;;
60478;SDS011;46321;48.398;11.754;2023-01-29T16:25:48;26.52;;;13.73;;
60478;SDS011;46321;48.398;11.754;2023-01-29T16:28:15;18.50;;;8.98;;
60478;SDS011;46321;48.398;11.754;2023-01-29T16:30:41;25.33;;;11.30;;
60478;SDS011;46321;48.398;11.754;2023-01-29T16:33:07;27.02;;;13.27;;
60478;SDS011;46321;48.398;11.754;2023-01-29T16:35:37;31.63;;;14.52;;
60478;SDS011;46321;48.398;11.754;2023-01-29T16:38:06;39.85;;;16.25;;